Atlas, PA

1:40 PM EDT on August 22, 2014 (GMT -0400)
RAWS ROARING CREEK PA US | Change Station
CLOSE
Current Station
Personal Weather Station
Location: Mount Carmel, PA
Elevation: 1035 ft
Nearby Weather Stations

Elev 1035 ft 40.83 °N, 76.42 °W | Updated 44 minutes ago

Haze
Haze
75 °F
Feels Like 74 °F
N
4
Wind Variable Wind from SSE
Gusts 10.0 mph

Today
High -- | Low -- °F
--% Chance of Precip.
Yesterday
High -- | Low -- °F
Precip. -- in
6:22 AM 7:53 PM
Waning Crescent, 7% visible
Pressure 29.99 in
Visibility 6.0 miles
Clouds Few 2700 ft
Mostly Cloudy 11000 ft
Heat Index 74 °F
Dew Point 73 °F
Humidity 93%
Rainfall 0.00 in
Snow Depth Not available.
UV 5 out of 12
Pollen 9.10 out of 12
Air Quality Not available.
Flu Activity Not available.
METAR KSEG 221653Z AUTO 11004KT 6SM HZ FEW027 BKN110 26/20 A3000 RMK AO2 SLP155 T02610200

More Conditions Fewer Conditions

Pressure 29.99 in
Visibility 6.0 miles
Clouds Few 2700 ft
Mostly Cloudy 11000 ft
Heat Index 74 °F
Dew Point 73 °F
Humidity 93%
Rainfall 0.00 in
Snow Depth Not available.
UV 5 out of 12
Pollen 9.10 out of 12
Air Quality Not available.
Flu Activity Not available.
METAR KSEG 221653Z AUTO 11004KT 6SM HZ FEW027 BKN110 26/20 A3000 RMK AO2 SLP155 T02610200

More Conditions Fewer Conditions

Nowcast | as of 1:04 PM EDT on August 22, 2014

Scattered showers and thunderstorms will develop and move across the area this afternoon. Heavy downpours may cause briefly reduced visibilities and ponding on roadways and other poor drainage areas.

×

10-Day Weather Forecast

Almanac

Astronomy

Aug. 22, 2014 Rise Set
Actual Time 6:22 AM EDT 7:53 PM EDT
Civil Twilight 5:53 AM EDT 8:22 PM EDT
Nautical Twilight 5:19 AM EDT 8:57 PM EDT
Astronomical Twilight 4:42 AM EDT 9:33 PM EDT
Moon 3:43 AM EDT 6:01 PM EDT
Length of Visible Light 14h 28m
Length of Day
13h 30m
Tomorrow will be 2m 29s shorter.
Waning Crescent, 7% of the Moon is Illuminated
Today
Waning Crescent
Aug 25
New
Sep 2
First Quarter
Sep 8
Full
Sep 15
Last Quarter

Today's Extremes

State Highs State Lows

Community

WunderPhotos

Upload Photos

1,746,206 photos uploaded!

WunderBlogs® & News

Nearby

Snow Depth

Station Depth Elevation
No new snow has been reported.

Earthquake Activity

City Distance Mag. Time & Date
No recent earthquake activity has been reported nearby.
Minimum magnitude displayed is 2.5.

Coastal Water Temperatures

Place Temperature
No Stations Reporting

Nearby Weather Stations